createdAt,value
2023-04-12T00:00:55.639Z,99971.53
2023-04-12T00:03:23.504Z,99963.16
2023-04-12T00:05:54.657Z,99954.53
2023-04-12T00:08:32.955Z,99950.47
2023-04-12T00:11:00.907Z,99945.19
2023-04-12T00:13:29.199Z,99947.53
2023-04-12T00:15:57.068Z,99935.22
2023-04-12T00:18:25.259Z,99924.63
2023-04-12T00:20:53.469Z,99924.34
2023-04-12T00:23:21.357Z,99920.41
2023-04-12T00:25:50.622Z,99912.38
2023-04-12T00:28:18.405Z,99898.13
2023-04-12T00:30:46.581Z,99899.16
2023-04-12T00:33:14.342Z,99893.69
2023-04-12T00:35:42.168Z,99889.22
2023-04-12T00:38:11.117Z,99879.63
2023-04-12T00:40:42.495Z,99871.69
2023-04-12T00:43:15.562Z,99872.00
2023-04-12T00:45:44.436Z,99862.69
2023-04-12T00:48:12.664Z,99853.13
2023-04-12T00:50:44.879Z,99853.25
2023-04-12T00:53:14.392Z,99849.03
2023-04-12T00:55:44.950Z,99840.56
2023-04-12T00:58:15.958Z,99842.53
2023-04-12T01:00:52.992Z,99841.41
2023-04-12T01:03:23.490Z,99834.31
2023-04-12T01:06:01.198Z,99825.31
2023-04-12T01:08:40.468Z,99821.03
2023-04-12T01:11:17.686Z,99817.19
2023-04-12T01:13:54.235Z,99808.28
2023-04-12T01:16:29.745Z,99799.97
2023-04-12T01:19:03.738Z,99801.75
2023-04-12T01:21:43.428Z,99792.88
2023-04-12T01:24:24.796Z,99779.66
2023-04-12T01:26:53.120Z,99787.59
2023-04-12T01:29:23.415Z,99782.75
2023-04-12T01:31:55.377Z,99769.72
2023-04-12T01:34:26.034Z,99758.09
2023-04-12T01:36:55.485Z,99762.03
2023-04-12T01:39:23.420Z,99753.03
2023-04-12T01:41:51.595Z,99753.41
2023-04-12T01:44:19.957Z,99748.13
2023-04-12T01:46:49.965Z,99740.88
2023-04-12T01:49:20.052Z,99734.00
2023-04-12T01:51:53.594Z,99724.19
2023-04-12T01:54:24.214Z,99710.53
2023-04-12T01:56:58.883Z,99713.63
2023-04-12T01:59:31.561Z,99708.19
2023-04-12T02:02:00.731Z,99708.28
2023-04-12T02:04:29.805Z,99691.19
2023-04-12T02:06:58.051Z,99695.59
2023-04-12T02:09:25.965Z,99687.28
2023-04-12T02:11:54.044Z,99675.75
2023-04-12T02:14:21.908Z,99670.47
2023-04-12T02:16:50.572Z,99662.69
2023-04-12T02:19:20.236Z,99654.06
2023-04-12T02:21:48.060Z,99641.81
2023-04-12T02:24:16.547Z,99642.66
2023-04-12T02:26:45.928Z,99652.88
2023-04-12T02:29:14.557Z,99643.50
2023-04-12T02:31:42.621Z,99631.75
2023-04-12T02:34:13.308Z,99631.41
2023-04-12T02:36:49.278Z,99624.81
2023-04-12T02:39:19.454Z,99616.25
2023-04-12T02:41:49.788Z,99606.00
2023-04-12T02:44:17.969Z,99610.97
2023-04-12T02:46:56.197Z,99603.88
2023-04-12T02:49:24.417Z,99600.28
2023-04-12T02:51:54.712Z,99578.22
2023-04-12T02:54:27.695Z,99565.31
2023-04-12T02:56:57.440Z,99555.03
2023-04-12T02:59:44.429Z,99545.09
2023-04-12T03:02:25.048Z,99548.84
2023-04-12T03:04:58.589Z,99532.88
2023-04-12T03:07:37.301Z,99527.59
2023-04-12T03:10:07.649Z,99524.78
2023-04-12T03:12:40.051Z,99523.88
2023-04-12T03:15:19.218Z,99516.84
2023-04-12T03:17:51.809Z,99509.75
2023-04-12T03:20:24.563Z,99494.06
2023-04-12T03:23:04.048Z,99499.00
2023-04-12T03:25:33.934Z,99486.00
2023-04-12T03:28:19.236Z,99466.03
2023-04-12T03:30:50.104Z,99474.09
2023-04-12T03:33:20.976Z,99466.19
2023-04-12T03:35:49.876Z,99455.94
2023-04-12T03:38:19.428Z,99456.75
2023-04-12T03:40:48.112Z,99448.69
2023-04-12T03:43:17.598Z,99433.13
2023-04-12T03:45:45.328Z,99417.59
2023-04-12T03:48:13.320Z,99417.44
2023-04-12T03:50:45.138Z,99414.94
2023-04-12T03:53:22.213Z,99408.00
2023-04-12T03:55:51.058Z,99403.19
2023-04-12T03:58:18.887Z,99393.31
2023-04-12T04:00:49.852Z,99380.97
2023-04-12T04:03:18.216Z,99379.31
2023-04-12T04:05:53.618Z,99364.75
2023-04-12T04:08:23.435Z,99370.91
2023-04-12T04:10:52.713Z,99368.91
2023-04-12T04:13:23.915Z,99357.84
2023-04-12T04:16:03.505Z,99351.78
2023-04-12T04:18:31.558Z,99343.34
2023-04-12T04:21:00.069Z,99356.06
2023-04-12T04:23:38.393Z,99348.47
2023-04-12T04:26:10.430Z,99331.50
2023-04-12T04:28:44.998Z,99324.56
2023-04-12T04:31:17.544Z,99328.19
2023-04-12T04:33:49.426Z,99329.53
2023-04-12T04:36:18.180Z,99319.31
2023-04-12T04:38:52.713Z,99312.88
2023-04-12T04:41:39.446Z,99303.16
2023-04-12T04:44:10.506Z,99296.91
2023-04-12T04:46:44.017Z,99303.84
2023-04-12T04:49:11.995Z,99303.66
2023-04-12T04:51:39.663Z,99305.84
2023-04-12T04:54:09.934Z,99303.50
2023-04-12T04:56:41.383Z,99303.50
2023-04-12T04:59:10.372Z,99296.91
2023-04-12T05:01:38.335Z,99304.50
2023-04-12T05:04:06.756Z,99299.03
2023-04-12T05:06:34.617Z,99296.25
2023-04-12T05:09:05.308Z,99291.47
2023-04-12T05:11:39.228Z,99290.16
2023-04-12T05:14:12.630Z,99291.63
2023-04-12T05:16:41.254Z,99278.94
2023-04-12T05:19:09.048Z,99270.84
2023-04-12T05:21:36.776Z,99274.16
2023-04-12T05:24:04.997Z,99266.88
2023-04-12T05:26:36.287Z,99260.97
2023-04-12T05:29:10.682Z,99253.53
2023-04-12T05:31:38.574Z,99250.22
2023-04-12T05:34:10.308Z,99250.41
2023-04-12T05:36:44.628Z,99248.91
2023-04-12T05:39:12.458Z,99239.31
2023-04-12T05:41:40.681Z,99236.38
2023-04-12T05:44:09.917Z,99237.53
2023-04-12T05:46:38.642Z,99229.94
2023-04-12T05:49:06.999Z,99228.13
2023-04-12T05:51:43.589Z,99223.66
2023-04-12T05:54:21.813Z,99218.25
2023-04-12T05:56:52.881Z,99223.66
2023-04-12T05:59:22.390Z,99216.75
2023-04-12T06:01:50.916Z,99213.28
2023-04-12T06:04:20.963Z,99211.47
2023-04-12T06:06:49.690Z,99211.47
2023-04-12T06:09:17.868Z,99192.66
2023-04-12T06:11:45.937Z,99190.84
2023-04-12T06:14:13.743Z,99196.13
2023-04-12T06:16:43.171Z,99202.91
2023-04-12T06:19:11.338Z,99197.94
2023-04-12T06:21:39.112Z,99186.06
2023-04-12T06:24:08.484Z,99185.41
2023-04-12T06:26:39.648Z,99187.41
2023-04-12T06:29:11.213Z,99173.53
2023-04-12T06:31:39.264Z,99174.19
2023-04-12T06:34:09.156Z,99160.16
2023-04-12T06:36:41.457Z,99165.28
2023-04-12T06:39:09.588Z,99154.91
2023-04-12T06:41:37.301Z,99148.47
2023-04-12T06:44:05.091Z,99145.16
2023-04-12T06:46:32.988Z,99147.13
2023-04-12T06:49:01.229Z,99146.81
2023-04-12T06:51:30.932Z,99144.16
2023-04-12T06:53:58.698Z,99126.69
2023-04-12T06:56:26.691Z,99123.53
2023-04-12T06:58:55.191Z,99102.63
2023-04-12T07:01:23.444Z,99114.31
2023-04-12T07:03:51.801Z,99103.94
2023-04-12T07:06:25.941Z,99109.53
2023-04-12T07:08:58.003Z,99098.34
2023-04-12T07:11:27.560Z,99098.97
2023-04-12T07:13:59.729Z,99098.66
2023-04-12T07:16:28.044Z,99091.88
2023-04-12T07:19:03.760Z,99077.38
2023-04-12T07:21:31.735Z,99081.81
2023-04-12T07:24:01.664Z,99071.59
2023-04-12T07:26:30.136Z,99075.88
2023-04-12T07:28:58.453Z,99073.53
2023-04-12T07:31:26.495Z,99063.66
2023-04-12T07:33:54.244Z,99070.28
2023-04-12T07:36:22.210Z,99055.72
2023-04-12T07:38:58.246Z,99054.91
2023-04-12T07:41:28.467Z,99047.09
2023-04-12T07:43:58.041Z,99045.44
2023-04-12T07:46:31.503Z,99042.16
2023-04-12T07:48:59.493Z,99041.31
2023-04-12T07:51:27.778Z,99031.75
2023-04-12T07:53:56.914Z,99025.94
2023-04-12T07:56:24.961Z,99031.22
2023-04-12T07:58:54.074Z,99023.00
2023-04-12T08:01:21.901Z,99035.66
2023-04-12T08:03:49.774Z,99037.53
2023-04-12T08:06:18.240Z,99037.53
2023-04-12T08:08:46.062Z,99033.19
2023-04-12T08:11:13.957Z,99044.72
2023-04-12T08:13:41.698Z,99037.53
2023-04-12T08:16:12.966Z,99024.97
2023-04-12T08:18:40.873Z,99027.41
2023-04-12T08:21:08.920Z,99025.25
2023-04-12T08:23:36.728Z,99023.59
2023-04-12T08:26:04.673Z,99024.75
2023-04-12T08:28:33.506Z,99034.97
2023-04-12T08:31:01.348Z,99032.47
2023-04-12T08:33:30.451Z,99018.59
2023-04-12T08:35:58.944Z,99015.94
2023-04-12T08:38:41.537Z,99018.88
2023-04-12T08:41:12.623Z,99009.88
2023-04-12T08:43:45.327Z,99017.38
2023-04-12T08:46:15.580Z,99017.88
2023-04-12T08:48:46.451Z,99014.59
2023-04-12T08:51:15.658Z,99017.88
2023-04-12T08:53:43.447Z,99018.72
2023-04-12T08:56:12.673Z,99019.25
2023-04-12T08:58:41.656Z,99012.94
2023-04-12T09:01:14.182Z,99017.38
2023-04-12T09:03:43.295Z,98998.38
2023-04-12T09:06:13.341Z,99003.59
2023-04-12T09:08:55.116Z,99004.91
2023-04-12T09:11:24.635Z,99003.03
2023-04-12T09:13:52.912Z,98997.53
2023-04-12T09:16:36.149Z,98990.13
2023-04-12T09:19:04.049Z,98996.72
2023-04-12T09:21:35.129Z,98987.63
2023-04-12T09:24:05.889Z,98996.00
2023-04-12T09:26:33.679Z,99000.63
2023-04-12T09:29:01.465Z,99005.41
2023-04-12T09:31:29.230Z,98997.59
2023-04-12T09:34:07.825Z,98992.31
2023-04-12T09:36:40.590Z,98983.81
2023-04-12T09:39:08.855Z,98988.50
2023-04-12T09:41:36.665Z,98975.56
2023-04-12T09:44:04.662Z,98983.91
2023-04-12T09:46:32.488Z,98976.84
2023-04-12T09:49:00.609Z,98979.22
2023-04-12T09:51:31.140Z,98977.22
2023-04-12T09:54:02.330Z,98972.63
2023-04-12T09:56:32.184Z,98988.63
2023-04-12T09:59:03.931Z,98984.41
2023-04-12T10:01:35.612Z,98979.44
2023-04-12T10:04:04.646Z,98979.44
2023-04-12T10:06:34.095Z,98963.09
2023-04-12T10:09:04.962Z,98964.38
2023-04-12T10:11:33.833Z,98964.22
2023-04-12T10:14:03.650Z,98943.31
2023-04-12T10:16:31.858Z,98950.59
2023-04-12T10:19:03.840Z,98952.69
2023-04-12T10:21:31.882Z,98951.97
2023-04-12T10:24:00.290Z,98951.41
2023-04-12T10:26:29.496Z,98952.16
2023-04-12T10:29:26.378Z,98943.94
2023-04-12T10:32:19.449Z,98935.16
2023-04-12T10:34:52.701Z,98944.41
2023-04-12T10:37:21.241Z,98935.47
2023-04-12T10:39:54.235Z,98937.72
2023-04-12T10:42:28.021Z,98941.19
2023-04-12T10:45:18.250Z,98945.94
2023-04-12T10:48:03.744Z,98936.53
2023-04-12T10:50:32.781Z,98944.59
2023-04-12T10:53:26.947Z,98940.38
2023-04-12T10:55:55.151Z,98942.25
2023-04-12T10:59:00.151Z,98969.75
2023-04-12T11:01:32.131Z,99005.25
2023-04-12T11:04:18.494Z,99007.84
2023-04-12T11:07:11.213Z,99007.22
2023-04-12T11:10:02.458Z,99008.44
2023-04-12T11:12:35.474Z,98993.75
2023-04-12T11:15:06.293Z,98983.50
2023-04-12T11:17:55.671Z,98991.53
2023-04-12T11:20:23.794Z,98984.03
2023-04-12T11:22:52.424Z,98990.28
2023-04-12T11:25:20.677Z,98998.38
2023-04-12T11:27:52.345Z,98999.16
2023-04-12T11:30:23.516Z,98982.25
2023-04-12T11:32:51.570Z,98992.50
2023-04-12T11:35:24.248Z,98985.09
2023-04-12T11:37:52.112Z,99002.03
2023-04-12T11:40:22.545Z,98983.28
2023-04-12T11:42:50.607Z,98984.72
2023-04-12T11:45:21.771Z,98981.72
2023-04-12T11:47:49.712Z,98984.09
2023-04-12T11:50:29.777Z,98982.94
2023-04-12T11:53:10.816Z,98987.38
2023-04-12T11:55:38.632Z,98983.00
2023-04-12T11:58:06.412Z,98983.28
2023-04-12T12:00:36.013Z,98988.53
2023-04-12T12:03:07.582Z,98989.13
2023-04-12T12:05:38.482Z,98987.72
2023-04-12T12:08:07.783Z,98988.91
2023-04-12T12:10:46.959Z,98994.91
2023-04-12T12:13:25.381Z,98998.63
2023-04-12T12:15:54.755Z,98999.59
2023-04-12T12:18:28.811Z,98989.88
2023-04-12T12:20:56.696Z,98985.50
2023-04-12T12:23:31.468Z,98989.97
2023-04-12T12:26:10.426Z,98992.28
2023-04-12T12:28:50.935Z,99001.31
2023-04-12T12:31:22.533Z,99001.94
2023-04-12T12:33:52.508Z,98998.31
2023-04-12T12:36:20.800Z,98991.19
2023-04-12T12:38:51.178Z,98986.72
2023-04-12T12:41:21.070Z,98982.38
2023-04-12T12:43:49.932Z,98982.28
2023-04-12T12:46:18.963Z,98988.47
2023-04-12T12:48:49.281Z,98985.66
2023-04-12T12:51:19.508Z,98976.69
2023-04-12T12:53:48.077Z,98972.09
2023-04-12T12:56:16.992Z,98965.69
2023-04-12T12:58:45.292Z,98978.78
2023-04-12T13:01:13.006Z,98973.84
2023-04-12T13:03:40.942Z,98980.41
2023-04-12T13:06:10.606Z,98977.47
2023-04-12T13:08:38.382Z,98970.53
2023-04-12T13:11:06.760Z,98965.13
2023-04-12T13:13:34.501Z,98980.88
2023-04-12T13:16:02.332Z,98994.44
2023-04-12T13:18:30.186Z,98981.84
2023-04-12T13:20:57.985Z,98986.03
2023-04-12T13:23:27.074Z,98986.19
2023-04-12T13:25:54.872Z,98987.16
2023-04-12T13:28:22.593Z,98998.00
2023-04-12T13:30:50.520Z,98995.69
2023-04-12T13:33:21.678Z,99003.16
2023-04-12T13:35:49.774Z,98985.44
2023-04-12T13:38:17.600Z,98994.94
2023-04-12T13:40:46.691Z,98995.16
2023-04-12T13:43:14.545Z,98988.59
2023-04-12T13:45:42.343Z,98991.16
2023-04-12T13:48:10.211Z,98993.47
2023-04-12T13:50:37.979Z,98983.41
2023-04-12T13:53:05.728Z,98974.00
2023-04-12T13:55:33.570Z,98980.06
2023-04-12T13:58:02.676Z,98972.81
2023-04-12T14:00:30.507Z,98978.88
2023-04-12T14:02:58.372Z,98980.75
2023-04-12T14:05:26.369Z,98981.81
2023-04-12T14:07:55.605Z,98971.81
2023-04-12T14:10:23.338Z,98976.69
2023-04-12T14:12:51.245Z,98978.19
2023-04-12T14:15:20.369Z,98980.75
2023-04-12T14:17:48.283Z,98977.16
2023-04-12T14:20:18.782Z,98981.63
2023-04-12T14:22:47.344Z,98994.19
2023-04-12T14:25:15.095Z,98997.16
2023-04-12T14:27:42.969Z,99031.22
2023-04-12T14:30:10.990Z,99019.28
2023-04-12T14:32:41.224Z,99024.56
2023-04-12T14:35:09.914Z,99035.41
2023-04-12T14:37:37.937Z,99040.31
2023-04-12T14:40:08.650Z,99014.56
2023-04-12T14:42:37.580Z,99017.22
2023-04-12T14:45:08.111Z,99025.81
2023-04-12T14:47:36.042Z,99029.47
2023-04-12T14:50:05.569Z,99021.84
2023-04-12T14:52:33.345Z,99028.16
2023-04-12T14:55:01.790Z,99028.16
2023-04-12T14:57:29.508Z,99028.34
2023-04-12T14:59:57.289Z,99028.97
2023-04-12T15:02:26.103Z,99027.53
2023-04-12T15:04:54.567Z,99007.47
2023-04-12T15:07:23.724Z,99019.44
2023-04-12T15:09:51.433Z,99025.34
2023-04-12T15:12:19.231Z,99020.34
2023-04-12T15:14:47.259Z,99022.53
2023-04-12T15:17:15.079Z,99035.63
2023-04-12T15:19:42.874Z,99028.31
2023-04-12T15:22:10.609Z,99038.56
2023-04-12T15:24:39.657Z,99033.69
2023-04-12T15:27:07.670Z,99033.44
2023-04-12T15:29:35.961Z,99049.75
2023-04-12T15:32:03.757Z,99047.50
2023-04-12T15:34:33.996Z,99051.81
2023-04-12T15:37:02.439Z,99045.84
2023-04-12T15:39:30.439Z,99049.25
2023-04-12T15:42:00.313Z,99047.22
2023-04-12T15:44:31.701Z,99033.38
2023-04-12T15:47:10.258Z,99053.84
2023-04-12T15:49:39.305Z,99071.75
2023-04-12T15:52:06.973Z,99089.59
2023-04-12T15:54:35.120Z,99111.25
2023-04-12T15:57:09.608Z,99113.56
2023-04-12T15:59:38.025Z,99115.28
2023-04-12T16:02:09.779Z,99113.22
2023-04-12T16:04:38.088Z,99111.44
2023-04-12T16:07:05.926Z,99111.34
2023-04-12T16:09:34.876Z,99114.38
2023-04-12T16:12:04.081Z,99112.56
2023-04-12T16:14:32.276Z,99130.25
2023-04-12T16:17:00.232Z,99125.97
2023-04-12T16:19:28.213Z,99132.94
2023-04-12T16:21:56.015Z,99137.94
2023-04-12T16:24:23.770Z,99151.16
2023-04-12T16:26:52.153Z,99156.50
2023-04-12T16:29:21.224Z,99153.41
2023-04-12T16:31:48.972Z,99141.72
2023-04-12T16:34:17.530Z,99154.31
2023-04-12T16:36:45.283Z,99138.78
2023-04-12T16:39:13.252Z,99133.66
2023-04-12T16:41:41.427Z,99145.44
2023-04-12T16:44:09.241Z,99138.50
2023-04-12T16:46:38.761Z,99136.53
2023-04-12T16:49:06.482Z,99127.63
2023-04-12T16:51:36.676Z,99129.47
2023-04-12T16:54:05.363Z,99129.28
2023-04-12T16:56:33.240Z,99124.25
2023-04-12T16:59:01.149Z,99120.94
2023-04-12T17:01:28.965Z,99123.91
2023-04-12T17:04:00.026Z,99121.38
2023-04-12T17:06:30.295Z,99115.19
2023-04-12T17:09:00.817Z,99112.94
2023-04-12T17:11:29.565Z,99111.28
2023-04-12T17:13:57.923Z,99118.22
2023-04-12T17:16:25.865Z,99109.47
2023-04-12T17:18:53.555Z,99119.16
2023-04-12T17:21:22.619Z,99125.44
2023-04-12T17:23:50.395Z,99114.91
2023-04-12T17:26:19.029Z,99117.41
2023-04-12T17:28:46.792Z,99121.03
2023-04-12T17:31:14.642Z,99121.59
2023-04-12T17:33:42.945Z,99118.97
2023-04-12T17:36:12.085Z,99126.88
2023-04-12T17:38:41.704Z,99125.88
2023-04-12T17:41:10.240Z,99118.13
2023-04-12T17:43:37.979Z,99115.81
2023-04-12T17:46:07.295Z,99108.25
2023-04-12T17:48:36.006Z,99115.00
2023-04-12T17:51:04.159Z,99116.00
2023-04-12T17:53:32.059Z,99129.25
2023-04-12T17:56:01.399Z,99129.75
2023-04-12T17:58:29.935Z,99130.25
2023-04-12T18:00:57.933Z,99129.25
2023-04-12T18:03:26.819Z,99130.75
2023-04-12T18:05:55.682Z,99129.59
2023-04-12T18:08:23.936Z,99117.91
2023-04-12T18:10:52.633Z,99128.63
2023-04-12T18:13:21.905Z,99122.69
2023-04-12T18:15:49.876Z,99126.66
2023-04-12T18:18:17.697Z,99127.63
2023-04-12T18:20:45.721Z,99127.63
2023-04-12T18:23:13.595Z,99130.28
2023-04-12T18:25:41.552Z,99124.38
2023-04-12T18:28:09.886Z,99132.78
2023-04-12T18:30:39.190Z,99153.72
2023-04-12T18:33:08.157Z,99151.44
2023-04-12T18:35:36.310Z,99161.16
2023-04-12T18:38:04.445Z,99163.16
2023-04-12T18:40:32.232Z,99163.63
2023-04-12T18:43:02.774Z,99158.38
2023-04-12T18:45:30.992Z,99167.25
2023-04-12T18:48:00.583Z,99176.34
2023-04-12T18:50:28.742Z,99172.56
2023-04-12T18:52:58.425Z,99167.44
2023-04-12T18:55:26.339Z,99165.44
2023-04-12T18:57:54.101Z,99164.97
2023-04-12T19:00:22.426Z,99171.22
2023-04-12T19:02:50.217Z,99159.84
2023-04-12T19:05:21.602Z,99164.63
2023-04-12T19:07:49.401Z,99155.56
2023-04-12T19:10:17.546Z,99161.66
2023-04-12T19:12:45.456Z,99154.56
2023-04-12T19:15:13.416Z,99159.66
2023-04-12T19:17:41.343Z,99164.81
2023-04-12T19:20:10.862Z,99160.66
2023-04-12T19:22:39.928Z,99161.84
2023-04-12T19:25:09.462Z,99164.28
2023-04-12T19:27:37.836Z,99170.41
2023-04-12T19:30:07.192Z,99179.50
2023-04-12T19:32:34.891Z,99171.22
2023-04-12T19:35:02.774Z,99172.38
2023-04-12T19:37:33.851Z,99177.34
2023-04-12T19:40:03.435Z,99180.16
2023-04-12T19:42:31.452Z,99178.31
2023-04-12T19:45:00.561Z,99179.97
2023-04-12T19:47:29.043Z,99185.91
2023-04-12T19:49:58.197Z,99187.69
2023-04-12T19:52:28.136Z,99192.97
2023-04-12T19:54:57.076Z,99188.69
2023-04-12T19:57:27.533Z,99195.75
2023-04-12T19:59:58.205Z,99191.63
2023-04-12T20:02:25.913Z,99188.66
2023-04-12T20:04:57.659Z,99180.72
2023-04-12T20:07:25.483Z,99187.63
2023-04-12T20:09:53.640Z,99191.22
2023-04-12T20:12:21.597Z,99192.38
2023-04-12T20:14:50.734Z,99191.50
2023-04-12T20:17:18.581Z,99182.78
2023-04-12T20:19:46.792Z,99188.84
2023-04-12T20:22:14.546Z,99172.56
2023-04-12T20:24:42.487Z,99164.50
2023-04-12T20:27:11.332Z,99169.41
2023-04-12T20:29:39.657Z,99172.06
2023-04-12T20:32:09.705Z,99173.56
2023-04-12T20:34:37.436Z,99167.78
2023-04-12T20:37:05.710Z,99153.97
2023-04-12T20:39:33.454Z,99157.22
2023-04-12T20:42:01.799Z,99144.56
2023-04-12T20:44:29.556Z,99157.88
2023-04-12T20:46:58.617Z,99158.50
2023-04-12T20:49:28.128Z,99167.41
2023-04-12T20:51:56.769Z,99166.56
2023-04-12T20:54:25.263Z,99173.66
2023-04-12T20:56:53.346Z,99172.00
2023-04-12T20:59:22.934Z,99165.56
2023-04-12T21:04:39.123Z,99161.00
2023-04-12T21:07:06.897Z,99160.47
2023-04-12T21:09:35.280Z,99177.31
2023-04-12T21:12:04.950Z,99179.25
2023-04-12T21:14:34.804Z,99182.53
2023-04-12T21:17:04.872Z,99192.09
2023-04-12T21:19:32.641Z,99226.50
2023-04-12T21:22:01.913Z,99219.97
2023-04-12T21:24:30.992Z,99221.56
2023-04-12T21:26:58.786Z,99217.44
2023-04-12T21:29:26.536Z,99214.63
2023-04-12T21:31:54.290Z,99234.97
2023-04-12T21:34:22.330Z,99218.78
2023-04-12T21:36:50.074Z,99222.53
2023-04-12T21:39:19.333Z,99206.84
2023-04-12T21:41:46.990Z,99203.53
2023-04-12T21:44:14.708Z,99196.47
2023-04-12T21:46:42.387Z,99183.75
2023-04-12T21:49:10.235Z,99173.91
2023-04-12T21:51:38.009Z,99165.78
2023-04-12T21:54:06.036Z,99189.66
2023-04-12T21:56:35.101Z,99166.78
2023-04-12T21:59:04.238Z,99150.47
2023-04-12T22:01:33.565Z,99164.66
2023-04-12T22:04:01.554Z,99118.00
2023-04-12T22:06:29.384Z,99121.72
2023-04-12T22:09:01.617Z,99138.56
2023-04-12T22:11:29.837Z,99142.47
2023-04-12T22:13:59.221Z,99147.22
2023-04-12T22:16:27.742Z,99146.19
2023-04-12T22:18:55.762Z,99133.91
2023-04-12T22:21:23.735Z,99138.97
2023-04-12T22:23:51.437Z,99137.00
2023-04-12T22:26:19.150Z,99127.66
2023-04-12T22:28:48.381Z,99116.97
2023-04-12T22:31:21.815Z,99121.72
2023-04-12T22:33:49.534Z,99126.78
2023-04-12T22:36:17.567Z,99138.97
2023-04-12T22:38:47.514Z,99123.19
2023-04-12T22:41:16.684Z,99120.84
2023-04-12T22:43:47.537Z,99122.50
2023-04-12T22:46:18.462Z,99130.09
2023-04-12T22:48:47.660Z,99115.59
2023-04-12T22:51:15.870Z,99109.28
2023-04-12T22:53:43.980Z,99101.91
2023-04-12T22:56:11.885Z,99100.94
2023-04-12T22:58:40.630Z,99090.72
2023-04-12T23:01:10.965Z,99093.56
2023-04-12T23:03:41.554Z,99082.34
2023-04-12T23:06:09.727Z,99080.09
2023-04-12T23:08:38.599Z,99074.75
2023-04-12T23:11:07.257Z,99080.34
2023-04-12T23:13:36.134Z,99070.97
2023-04-12T23:16:05.027Z,99069.66
2023-04-12T23:18:32.854Z,99067.50
2023-04-12T23:21:02.690Z,99075.41
2023-04-12T23:23:30.492Z,99062.81
2023-04-12T23:25:58.212Z,99051.13
2023-04-12T23:28:26.628Z,99063.94
2023-04-12T23:30:54.442Z,99055.56
2023-04-12T23:33:22.635Z,99056.25
2023-04-12T23:35:52.439Z,99055.56
2023-04-12T23:38:31.681Z,99041.97
2023-04-12T23:41:00.402Z,99044.22
2023-04-12T23:43:28.226Z,99045.06
2023-04-12T23:45:56.974Z,99044.75
2023-04-12T23:48:25.527Z,99039.50
2023-04-12T23:50:53.528Z,99030.63
2023-04-12T23:53:22.884Z,99033.13
2023-04-12T23:55:52.039Z,99032.81
2023-04-12T23:58:19.945Z,99040.56
